Time;durP1;ratioP1;P1;durP2;ratioP2;P2;SDS_P1;SDS_P2;PMS_P1;PMS_P2;Temp;Humidity;BMP_temperature;BMP_pressure;BME280_temperature;BME280_humidity;BME280_pressure;Samples;Min_cycle;Max_cycle;Signal;HPM_P1;HPM_P2
2022/05/04 00:00:07;;;;;;;13.87;9.00;;;7.80;1.00;;;;;;5140602;28;20210;-93
2022/05/04 00:02:50;;;;;;;11.07;8.00;;;7.80;1.00;;;;;;5139107;28;20237;-93
2022/05/04 00:05:33;;;;;;;;;;;;;;;;;;;;;
2022/05/04 00:08:37;;;;;;;9.23;7.03;;;7.90;1.00;;;;;;5143532;28;20195;-92
2022/05/04 00:11:13;;;;;;;10.93;7.40;;;8.00;1.00;;;;;;5143163;28;20215;-93
2022/05/04 00:14:03;;;;;;;;;;;;;;;;;;;;;
2022/05/04 00:17:17;;;;;;;12.77;9.43;;;8.30;1.00;;;;;;5122505;28;20212;-92
2022/05/04 00:20:04;;;;;;;12.63;8.03;;;8.40;1.00;;;;;;5121519;28;20545;-92
2022/05/04 00:22:58;;;;;;;9.33;7.27;;;8.50;1.00;;;;;;5120915;28;20205;-94
2022/05/04 00:25:38;;;;;;;9.27;6.90;;;8.70;1.00;;;;;;5120801;28;20201;-93
2022/05/04 00:28:23;;;;;;;8.77;7.03;;;8.80;1.00;;;;;;5121044;28;20194;-94
2022/05/04 00:31:05;;;;;;;8.67;6.90;;;8.80;1.00;;;;;;5107738;28;20214;-93
2022/05/04 00:34:00;;;;;;;9.53;7.50;;;8.90;1.00;;;;;;5120486;28;20194;-92
2022/05/04 00:36:42;;;;;;;9.90;7.73;;;9.00;1.00;;;;;;5121093;28;20284;-92
2022/05/04 00:39:30;;;;;;;;;;;;;;;;;;;;;
2022/05/04 00:42:22;;;;;;;8.77;7.27;;;9.10;1.00;;;;;;5135363;28;20194;-92
2022/05/04 00:45:04;;;;;;;10.57;7.17;;;9.20;1.00;;;;;;5141628;28;20208;-93
2022/05/04 00:48:13;;;;;;;10.83;7.60;;;9.20;1.00;;;;;;5141627;28;20190;-92
2022/05/04 00:50:58;;;;;;;8.77;7.70;;;9.30;1.00;;;;;;5113809;28;20290;-91
2022/05/04 00:53:38;;;;;;;11.70;6.97;;;9.30;1.00;;;;;;5120420;28;20199;-94
2022/05/04 00:56:20;;;;;;;10.50;7.50;;;9.30;1.00;;;;;;5120673;28;20229;-92
2022/05/04 00:58:58;;;;;;;11.00;7.63;;;9.40;1.00;;;;;;5120126;28;20237;-93
2022/05/04 01:01:49;;;;;;;13.10;8.67;;;9.40;1.00;;;;;;5117111;28;20204;-94
2022/05/04 01:04:37;;;;;;;9.43;7.53;;;9.40;1.00;;;;;;5107284;28;20203;-93
2022/05/04 01:07:23;;;;;;;;;;;;;;;;;;;;;
2022/05/04 01:10:14;;;;;;;9.50;7.40;;;9.30;1.00;;;;;;5107547;28;20183;-95
2022/05/04 01:13:27;;;;;;;9.27;7.50;;;9.30;1.00;;;;;;5127038;28;20202;-93
2022/05/04 01:16:35;;;;;;;10.63;7.47;;;9.30;1.00;;;;;;5128357;28;20201;-94
2022/05/04 01:22:28;;;;;;;11.10;8.47;;;9.40;1.00;;;;;;5083062;28;20205;-95
2022/05/04 01:28:32;;;;;;;11.37;8.07;;;9.50;1.00;;;;;;5101223;28;20196;-93
2022/05/04 01:31:31;;;;;;;12.37;8.40;;;9.40;1.00;;;;;;4985203;28;20224;-93
2022/05/04 01:34:21;;;;;;;10.40;7.77;;;9.30;1.00;;;;;;5092386;28;20203;-93
2022/05/04 01:37:05;;;;;;;11.17;7.90;;;9.30;1.00;;;;;;5107922;28;20263;-94
2022/05/04 01:39:51;;;;;;;14.10;8.00;;;9.30;1.00;;;;;;5106961;28;20562;-94
2022/05/04 01:42:31;;;;;;;10.53;8.50;;;9.30;1.00;;;;;;5105982;28;20207;-94
2022/05/04 01:45:12;;;;;;;;;;;;;;;;;;;;;
2022/05/04 01:47:55;;;;;;;10.87;8.43;;;9.30;1.00;;;;;;5105446;28;20264;-94
2022/05/04 01:50:40;;;;;;;9.90;7.87;;;9.20;1.00;;;;;;5106900;28;20227;-94
2022/05/04 01:56:41;;;;;;;11.00;7.93;;;9.20;1.00;;;;;;5103823;28;20274;-93
2022/05/04 01:59:57;;;;;;;10.27;8.20;;;9.20;1.00;;;;;;5122851;28;20217;-95
2022/05/04 02:02:39;;;;;;;9.87;7.83;;;9.30;1.00;;;;;;5124246;28;20203;-94
2022/05/04 02:05:34;;;;;;;11.20;8.37;;;9.20;1.00;;;;;;5126747;28;20183;-94
2022/05/04 02:08:49;;;;;;;11.10;8.20;;;9.20;1.00;;;;;;5125159;28;20202;-96
2022/05/04 02:12:04;;;;;;;;;;;;;;;;;;;;;
2022/05/04 02:17:40;;;;;;;10.00;8.10;;;9.20;1.00;;;;;;5121235;28;20199;-93
2022/05/04 02:26:42;;;;;;;;;;;;;;;;;;;;;
2022/05/04 02:30:03;;;;;;;10.73;8.53;;;9.10;1.00;;;;;;5062996;28;20258;-93
2022/05/04 02:33:06;;;;;;;10.53;8.10;;;9.10;1.00;;;;;;5035408;28;20203;-94
2022/05/04 02:39:04;;;;;;;9.60;8.47;;;9.10;1.00;;;;;;5043246;28;20170;-93
2022/05/04 02:41:55;;;;;;;11.50;8.30;;;9.10;1.00;;;;;;5108295;28;20258;-95
2022/05/04 02:44:36;;;;;;;11.03;8.13;;;9.00;1.00;;;;;;5124394;28;20214;-93
2022/05/04 02:47:16;;;;;;;14.23;8.43;;;9.00;1.00;;;;;;5122082;28;20238;-91
2022/05/04 02:49:57;;;;;;;12.57;8.10;;;9.00;1.00;;;;;;5120276;28;20201;-92
2022/05/04 02:52:56;;;;;;;11.83;8.40;;;9.00;1.00;;;;;;5121110;28;20310;-93
2022/05/04 02:55:50;;;;;;;;;;;;;;;;;;;;;
2022/05/04 02:58:30;;;;;;;10.23;8.00;;;9.00;1.00;;;;;;5114806;28;20624;-93
2022/05/04 03:07:42;;;;;;;12.20;7.73;;;8.80;1.00;;;;;;5120058;28;20190;-92
2022/05/04 03:11:54;;;;;;;10.57;8.17;;;8.70;1.00;;;;;;5119826;28;20211;-92
2022/05/04 03:13:53;;;;;;;11.23;8.60;;;8.60;1.00;;;;;;5105014;28;20289;-93
2022/05/04 03:16:31;;;;;;;13.43;8.30;;;8.50;1.00;;;;;;5121923;28;20195;-94
2022/05/04 03:19:01;;;;;;;10.47;8.00;;;8.50;1.00;;;;;;5122602;28;20580;-91
2022/05/04 03:21:40;;;;;;;9.17;7.57;;;8.50;1.00;;;;;;5123357;28;20211;-92
2022/05/04 03:24:23;;;;;;;11.10;8.10;;;8.40;36.50;;;;;;5122958;28;20203;-92
2022/05/04 03:27:09;;;;;;;11.50;8.13;;;8.50;92.60;;;;;;5123260;28;20226;-91
2022/05/04 03:29:50;;;;;;;;;;;;;;;;;;;;;
2022/05/04 03:32:20;;;;;;;10.37;8.23;;;8.50;99.90;;;;;;5122719;28;20213;-92
2022/05/04 03:34:48;;;;;;;10.80;8.57;;;8.60;99.90;;;;;;5123411;28;20189;-91
2022/05/04 03:37:19;;;;;;;12.97;9.00;;;8.60;99.90;;;;;;5119095;28;20202;-93
2022/05/04 03:39:52;;;;;;;12.07;8.07;;;8.60;99.90;;;;;;5100732;28;20196;-93
2022/05/04 03:42:24;;;;;;;10.80;8.17;;;8.60;99.90;;;;;;5101589;28;20186;-93
2022/05/04 03:44:56;;;;;;;11.50;8.50;;;8.60;99.90;;;;;;5100987;28;20197;-92
2022/05/04 03:47:25;;;;;;;12.60;8.80;;;8.60;99.90;;;;;;5100223;28;20194;-92
2022/05/04 03:49:52;;;;;;;10.20;7.40;;;8.70;99.90;;;;;;5097562;28;20695;-88
2022/05/04 03:52:19;;;;;;;13.00;8.10;;;8.70;99.90;;;;;;5092483;28;20284;-89
2022/05/04 03:54:47;;;;;;;12.40;8.17;;;8.60;99.90;;;;;;5093276;28;20548;-88
2022/05/04 03:57:14;;;;;;;12.07;8.77;;;8.60;99.90;;;;;;5099555;28;20601;-87
2022/05/04 03:59:41;;;;;;;11.93;9.00;;;8.70;99.90;;;;;;5114707;28;20301;-87
2022/05/04 04:02:08;;;;;;;11.30;7.73;;;8.80;99.90;;;;;;5115424;28;20211;-86
2022/05/04 04:04:35;;;;;;;12.30;8.93;;;8.80;99.90;;;;;;5113061;28;20278;-88
2022/05/04 04:07:02;;;;;;;11.83;8.90;;;8.80;99.90;;;;;;5112782;28;20281;-91
2022/05/04 04:09:29;;;;;;;12.67;9.17;;;8.90;99.90;;;;;;5113250;28;20201;-87
2022/05/04 04:11:57;;;;;;;14.37;9.03;;;9.00;99.90;;;;;;5113224;28;20258;-87
2022/05/04 04:14:24;;;;;;;12.03;9.40;;;9.10;99.90;;;;;;5113067;28;20240;-88
2022/05/04 04:16:51;;;;;;;12.87;8.97;;;9.10;99.90;;;;;;5108656;28;20278;-88
2022/05/04 04:19:18;;;;;;;11.90;8.60;;;9.40;99.90;;;;;;5092624;28;20211;-87
2022/05/04 04:21:53;;;;;;;11.90;8.07;;;9.90;1.00;;;;;;5092137;28;20716;-88
2022/05/04 04:24:21;;;;;;;18.17;8.10;;;10.30;99.90;;;;;;5094908;28;20232;-89
2022/05/04 04:26:48;;;;;;;10.17;8.23;;;10.50;88.50;;;;;;5101599;28;20284;-90
2022/05/04 04:29:17;;;;;;;13.10;8.30;;;10.50;1.00;;;;;;5112370;28;20189;-89
2022/05/04 04:31:44;;;;;;;12.40;8.60;;;10.50;1.00;;;;;;5112652;28;20296;-88
2022/05/04 04:34:11;;;;;;;17.10;8.70;;;10.60;1.00;;;;;;5114305;28;20286;-91
2022/05/04 04:36:39;;;;;;;17.63;8.07;;;10.70;4.70;;;;;;5118405;28;20238;-87
2022/05/04 04:39:05;;;;;;;17.20;8.50;;;11.30;99.90;;;;;;5124833;28;20195;-89
2022/05/04 04:41:33;;;;;;;14.33;8.47;;;11.60;1.00;;;;;;5124529;28;20236;-88
2022/05/04 04:44:01;;;;;;;10.10;7.87;;;11.80;1.00;;;;;;5120325;28;20696;-87
2022/05/04 04:46:29;;;;;;;12.80;7.93;;;12.40;1.00;;;;;;5115769;28;20227;-88
2022/05/04 04:48:56;;;;;;;11.37;7.60;;;13.10;1.00;;;;;;5116935;28;20557;-90
2022/05/04 04:51:23;;;;;;;12.10;8.17;;;13.30;1.00;;;;;;5119064;28;20226;-88
2022/05/04 04:53:50;;;;;;;12.90;8.27;;;13.60;1.00;;;;;;5117899;28;20229;-88
2022/05/04 04:56:17;;;;;;;12.33;8.27;;;13.80;99.90;;;;;;5116416;28;20238;-87
2022/05/04 04:58:44;;;;;;;12.73;8.70;;;13.80;99.90;;;;;;5116106;28;20282;-89
2022/05/04 05:01:11;;;;;;;10.50;8.07;;;13.70;99.90;;;;;;5117219;28;20227;-89
2022/05/04 05:03:39;;;;;;;11.43;8.47;;;13.90;99.90;;;;;;5115721;28;20280;-89
2022/05/04 05:06:06;;;;;;;14.07;8.80;;;14.10;99.90;;;;;;5116126;28;20281;-89
2022/05/04 05:08:33;;;;;;;13.37;8.60;;;14.20;99.90;;;;;;5116351;28;20699;-89
2022/05/04 05:11:00;;;;;;;10.60;8.53;;;14.20;99.90;;;;;;5115906;28;20271;-93
2022/05/04 05:13:27;;;;;;;49.93;35.73;;;14.60;99.90;;;;;;5115975;28;20645;-90
2022/05/04 05:16:07;;;;;;;11.57;8.82;;;15.60;99.90;;;;;;5115773;28;20188;-90
2022/05/04 05:18:34;;;;;;;10.25;7.32;;;16.50;88.10;;;;;;5116043;28;20185;-90
2022/05/04 05:21:03;;;;;;;10.07;7.53;;;17.00;1.00;;;;;;5117211;28;20623;-90
2022/05/04 05:23:30;;;;;;;9.55;7.90;;;17.50;1.00;;;;;;5119262;28;20231;-90
2022/05/04 05:25:57;;;;;;;8.98;7.60;;;17.60;1.00;;;;;;5118375;28;20218;-89
2022/05/04 05:28:24;;;;;;;12.55;7.72;;;17.20;1.00;;;;;;5117142;28;20187;-90
2022/05/04 05:30:51;;;;;;;9.68;7.63;;;17.10;1.00;;;;;;5116614;28;20281;-92
2022/05/04 05:33:17;;;;;;;8.98;7.15;;;17.50;1.00;;;;;;5115793;28;20224;-89
2022/05/04 05:35:44;;;;;;;7.47;6.78;;;18.00;1.00;;;;;;5115596;28;20277;-88
2022/05/04 05:38:13;;;;;;;9.30;6.97;;;19.00;1.00;;;;;;5115455;28;20690;-89
2022/05/04 05:40:40;;;;;;;11.70;7.13;;;19.60;1.00;;;;;;5115321;28;20199;-87
2022/05/04 05:43:07;;;;;;;8.48;7.25;;;20.30;1.00;;;;;;5115262;28;20237;-91
2022/05/04 05:45:33;;;;;;;9.63;7.18;;;20.50;1.00;;;;;;5114955;28;20267;-89
2022/05/04 05:48:00;;;;;;;8.80;7.00;;;20.40;1.00;;;;;;5115046;28;20235;-90
2022/05/04 05:50:28;;;;;;;10.68;7.47;;;20.30;1.00;;;;;;5114721;28;20647;-91
2022/05/04 05:52:55;;;;;;;7.93;7.00;;;21.10;1.00;;;;;;5114922;28;20187;-88
2022/05/04 05:55:23;;;;;;;8.85;7.25;;;21.90;1.00;;;;;;5115082;28;20312;-89
2022/05/04 05:57:50;;;;;;;8.20;7.10;;;22.60;1.00;;;;;;5115066;28;20566;-87
2022/05/04 06:00:17;;;;;;;10.88;7.15;;;23.30;1.00;;;;;;5115244;28;20230;-87
2022/05/04 06:02:45;;;;;;;9.88;6.85;;;23.90;1.00;;;;;;5115137;28;20243;-89
2022/05/04 06:05:12;;;;;;;9.13;6.95;;;24.60;1.00;;;;;;5115323;28;20191;-87
2022/05/04 06:07:40;;;;;;;10.98;7.25;;;24.60;1.00;;;;;;5115201;28;20226;-87
2022/05/04 06:10:08;;;;;;;8.55;6.78;;;24.00;1.00;;;;;;5114815;28;20187;-89
2022/05/04 06:12:38;;;;;;;8.35;6.93;;;23.40;1.00;;;;;;5114817;28;20259;-90
2022/05/04 06:15:07;;;;;;;9.85;7.85;;;23.00;1.00;;;;;;5114509;28;20188;-89
2022/05/04 06:17:33;;;;;;;11.07;7.35;;;22.80;1.00;;;;;;5114618;28;20725;-88
2022/05/04 06:20:00;;;;;;;9.73;7.22;;;22.70;1.00;;;;;;5114658;28;20270;-88
2022/05/04 06:22:27;;;;;;;7.28;6.47;;;22.70;1.00;;;;;;5114400;28;20629;-89
2022/05/04 06:24:54;;;;;;;8.30;7.28;;;22.80;1.00;;;;;;5114654;28;20218;-90
2022/05/04 06:27:21;;;;;;;9.52;6.75;;;22.90;1.00;;;;;;5114478;28;20278;-90
2022/05/04 06:35:18;;;;;;;8.80;7.00;;;22.60;1.00;;;;;;5114303;28;20643;-90
2022/05/04 06:37:45;;;;;;;8.25;6.57;;;23.20;1.00;;;;;;5114904;28;20286;-89
2022/05/04 06:40:12;;;;;;;9.15;7.25;;;23.80;1.00;;;;;;5114396;28;20205;-88
2022/05/04 06:42:39;;;;;;;7.72;6.85;;;24.10;1.00;;;;;;5114137;28;20622;-87
2022/05/04 06:45:09;;;;;;;10.02;7.05;;;24.80;1.00;;;;;;5113875;28;20191;-90
2022/05/04 06:47:36;;;;;;;8.05;6.25;;;25.90;1.00;;;;;;5114032;28;20239;-88
2022/05/04 06:50:04;;;;;;;7.82;6.63;;;26.60;1.00;;;;;;5113638;28;20281;-86
2022/05/04 06:52:32;;;;;;;7.25;5.75;;;27.50;1.00;;;;;;5113879;28;20198;-87
2022/05/04 06:54:59;;;;;;;8.70;5.78;;;28.20;1.00;;;;;;5113770;28;20298;-87
2022/05/04 06:57:26;;;;;;;9.52;5.90;;;29.00;1.00;;;;;;5113447;28;20278;-87
2022/05/04 06:59:54;;;;;;;6.45;5.78;;;29.60;1.00;;;;;;5113177;28;20198;-86
2022/05/04 07:02:22;;;;;;;6.85;5.63;;;30.50;1.00;;;;;;5113580;28;20248;-89
2022/05/04 07:04:49;;;;;;;5.97;5.38;;;30.70;1.00;;;;;;5113560;28;20282;-88
2022/05/04 07:07:16;;;;;;;7.88;5.47;;;30.30;1.00;;;;;;5113858;28;20278;-86
2022/05/04 07:09:43;;;;;;;9.95;5.53;;;29.80;1.00;;;;;;5113821;28;20230;-87
2022/05/04 07:12:10;;;;;;;10.10;5.32;;;29.30;1.00;;;;;;5113280;28;20667;-86
2022/05/04 07:14:37;;;;;;;7.38;5.10;;;28.50;1.00;;;;;;5113105;28;20270;-86
2022/05/04 07:17:04;;;;;;;8.50;5.80;;;28.00;1.00;;;;;;5113533;28;20198;-87
2022/05/04 07:19:33;;;;;;;8.73;5.47;;;28.10;1.00;;;;;;5113339;28;20233;-88
2022/05/04 07:22:00;;;;;;;7.38;5.20;;;28.40;1.00;;;;;;5113393;28;20310;-88
2022/05/04 07:24:27;;;;;;;7.68;5.47;;;28.60;1.00;;;;;;5113089;28;20607;-88
2022/05/04 07:26:53;;;;;;;11.02;7.22;;;28.50;1.00;;;;;;5112808;28;20731;-90
2022/05/04 07:29:20;;;;;;;8.13;5.55;;;28.70;1.00;;;;;;5112964;28;20275;-87
2022/05/04 07:31:48;;;;;;;6.25;5.05;;;28.90;1.00;;;;;;5113090;28;20273;-88
2022/05/04 07:34:15;;;;;;;9.60;4.97;;;29.40;1.00;;;;;;5112983;28;20237;-92
2022/05/04 07:36:43;;;;;;;6.50;4.53;;;30.30;1.00;;;;;;5113539;28;20277;-88
2022/05/04 07:42:21;;;;;;;6.10;4.78;;;30.90;1.00;;;;;;5113176;28;20195;-89
2022/05/04 07:44:45;;;;;;;;;;;32.40;1.00;;;;;;5106455;28;20056;-86
2022/05/04 07:47:12;;;;;;;5.35;4.50;;;32.70;1.00;;;;;;5113187;28;20255;-88
2022/05/04 07:49:39;;;;;;;5.22;4.20;;;32.70;1.00;;;;;;5112951;28;20202;-89
2022/05/04 07:52:08;;;;;;;78.07;57.00;;;32.90;1.00;;;;;;5112993;28;20239;-89
2022/05/04 07:54:35;;;;;;;10.27;5.47;;;33.40;1.00;;;;;;5113051;28;20237;-89
2022/05/04 07:57:02;;;;;;;9.90;4.80;;;34.20;1.00;;;;;;5112624;28;20657;-89
2022/05/04 07:59:29;;;;;;;7.43;4.50;;;34.70;1.00;;;;;;5112922;28;20273;-87
2022/05/04 08:04:40;;;;;;;8.07;4.85;;;35.30;1.00;;;;;;5112664;28;20182;-89
2022/05/04 08:07:08;;;;;;;9.32;7.43;;;35.50;1.00;;;;;;5112582;28;20279;-87
2022/05/04 08:09:36;;;;;;;7.25;4.70;;;35.80;1.00;;;;;;5112845;28;20197;-88
2022/05/04 08:12:06;;;;;;;6.63;4.70;;;35.70;1.00;;;;;;5114329;28;20194;-88
2022/05/04 08:14:33;;;;;;;7.05;3.63;;;35.80;1.00;;;;;;5116370;28;20646;-88
2022/05/04 08:16:59;;;;;;;4.28;3.83;;;35.60;1.00;;;;;;5116876;28;20186;-87
2022/05/04 08:19:26;;;;;;;4.35;3.75;;;34.20;1.00;;;;;;5116317;28;20218;-89
2022/05/04 08:21:54;;;;;;;8.18;7.30;;;32.50;1.00;;;;;;5116677;28;20191;-87
2022/05/04 08:24:23;;;;;;;6.22;3.40;;;31.40;1.00;;;;;;5117181;28;20260;-86
2022/05/04 08:26:50;;;;;;;4.40;3.38;;;30.10;1.00;;;;;;5116930;28;20552;-89
2022/05/04 08:29:17;;;;;;;5.97;4.50;;;28.90;1.00;;;;;;5116806;28;20282;-87
2022/05/04 08:31:44;;;;;;;4.72;3.85;;;28.20;1.00;;;;;;5116186;28;20957;-86
2022/05/04 08:34:11;;;;;;;7.30;4.03;;;27.50;1.00;;;;;;5116515;28;20230;-85
2022/05/04 08:36:38;;;;;;;4.60;3.78;;;26.80;1.00;;;;;;5116449;28;20245;-85
2022/05/04 08:39:05;;;;;;;7.38;4.88;;;25.90;1.00;;;;;;5116358;28;20223;-85
2022/05/04 08:41:36;;;;;;;5.00;3.47;;;24.80;1.00;;;;;;5116410;28;20222;-87
2022/05/04 08:44:05;;;;;;;3.13;2.83;;;24.00;1.00;;;;;;5116565;28;20224;-83
2022/05/04 08:46:34;;;;;;;2.97;2.67;;;23.20;1.00;;;;;;5115755;28;20230;-86
2022/05/04 08:49:02;;;;;;;3.78;2.70;;;22.30;1.00;;;;;;5116285;28;20227;-85
2022/05/04 08:51:31;;;;;;;3.80;3.08;;;21.60;1.00;;;;;;5116207;28;20306;-85
2022/05/04 08:53:58;;;;;;;4.22;3.17;;;21.10;1.00;;;;;;5115931;28;20190;-86
2022/05/04 08:56:25;;;;;;;5.47;3.25;;;20.60;1.00;;;;;;5116047;28;20286;-85
2022/05/04 08:58:53;;;;;;;3.40;3.00;;;20.60;1.00;;;;;;5116219;28;20213;-85
2022/05/04 09:01:20;;;;;;;4.05;3.22;;;21.50;1.00;;;;;;5115972;28;20638;-85
2022/05/04 09:03:47;;;;;;;3.53;3.10;;;22.60;1.00;;;;;;5116080;28;20642;-86
2022/05/04 09:06:26;;;;;;;3.00;2.70;;;22.90;1.00;;;;;;5115956;28;20226;-85
2022/05/04 09:09:03;;;;;;;4.15;2.60;;;23.30;1.00;;;;;;5115536;28;20651;-85
2022/05/04 09:11:32;;;;;;;4.15;2.70;;;24.20;1.00;;;;;;5115434;28;20187;-87
2022/05/04 09:14:07;;;;;;;5.25;3.10;;;24.80;1.00;;;;;;5115666;28;20252;-87
2022/05/04 09:16:34;;;;;;;4.13;2.80;;;24.80;1.00;;;;;;5115460;28;20761;-86
2022/05/04 09:19:02;;;;;;;3.88;3.17;;;24.20;1.00;;;;;;5115264;28;20635;-85
2022/05/04 09:21:29;;;;;;;6.65;3.20;;;23.70;1.00;;;;;;5115600;28;20274;-85
2022/05/04 09:23:56;;;;;;;4.93;3.20;;;23.40;1.00;;;;;;5114711;28;20210;-86
2022/05/04 09:26:24;;;;;;;4.15;3.08;;;23.00;1.00;;;;;;5115709;28;20195;-87
2022/05/04 09:28:52;;;;;;;4.22;3.30;;;23.40;1.00;;;;;;5115306;28;20280;-87
2022/05/04 09:31:25;;;;;;;5.28;3.80;;;23.50;1.00;;;;;;5115786;28;20193;-87
2022/05/04 09:33:56;;;;;;;6.50;3.67;;;23.20;1.00;;;;;;5115390;28;20229;-87
2022/05/04 09:36:35;;;;;;;4.00;3.63;;;22.70;1.00;;;;;;5115487;28;20241;-84
2022/05/04 09:45:08;;;;;;;7.95;5.40;;;21.80;1.00;;;;;;5115056;28;20183;-86
2022/05/04 09:47:39;;;;;;;4.28;2.88;;;22.40;1.00;;;;;;5115311;28;20187;-87
2022/05/04 09:50:07;;;;;;;3.58;2.70;;;22.70;1.00;;;;;;5114905;28;20210;-85
2022/05/04 09:52:42;;;;;;;4.95;2.90;;;22.80;1.00;;;;;;5114898;28;20658;-87
2022/05/04 09:55:19;;;;;;;5.32;2.70;;;22.70;1.00;;;;;;5114740;28;20214;-89
2022/05/04 09:57:48;;;;;;;2.75;2.45;;;22.40;1.00;;;;;;5114644;28;20695;-87
2022/05/04 10:00:17;;;;;;;4.10;2.88;;;22.30;1.00;;;;;;5114566;28;20631;-85
2022/05/04 10:02:46;;;;;;;7.32;3.17;;;22.10;1.00;;;;;;5114920;28;20213;-86
2022/05/04 10:05:13;;;;;;;5.82;3.25;;;22.00;1.00;;;;;;5114943;28;20240;-85
2022/05/04 10:07:41;;;;;;;7.72;3.42;;;22.00;1.00;;;;;;5114717;28;20198;-85
2022/05/04 10:10:10;;;;;;;3.10;2.60;;;22.10;1.00;;;;;;5114388;28;20183;-85
2022/05/04 10:12:40;;;;;;;4.63;2.75;;;22.20;1.00;;;;;;5114538;28;20191;-86
2022/05/04 10:15:10;;;;;;;5.10;3.10;;;22.10;1.00;;;;;;5114447;28;20192;-85
2022/05/04 10:17:40;;;;;;;4.20;3.00;;;21.90;1.00;;;;;;5115087;28;20195;-86
2022/05/04 10:20:13;;;;;;;3.78;3.35;;;21.70;1.00;;;;;;5114086;28;20651;-85
2022/05/04 10:22:44;;;;;;;3.40;3.10;;;21.70;1.00;;;;;;5114178;28;20177;-87
2022/05/04 10:25:15;;;;;;;4.40;3.17;;;21.70;1.00;;;;;;5114151;28;20222;-85
2022/05/04 10:27:43;;;;;;;4.55;3.25;;;21.70;1.00;;;;;;5114365;28;20578;-86
2022/05/04 10:32:58;;;;;;;3.40;3.10;;;21.70;1.00;;;;;;5114040;28;20182;-86
2022/05/04 10:35:35;;;;;;;3.88;3.08;;;21.80;1.00;;;;;;5113431;28;20195;-87
2022/05/04 10:38:15;;;;;;;4.80;3.03;;;21.80;1.00;;;;;;5114095;28;20179;-86
2022/05/04 10:40:50;;;;;;;3.78;2.95;;;21.90;1.00;;;;;;5113541;28;20533;-86
2022/05/04 10:43:19;;;;;;;3.28;2.60;;;21.80;1.00;;;;;;5114042;28;20207;-86
2022/05/04 10:45:49;;;;;;;4.25;2.80;;;21.70;1.00;;;;;;5113613;28;20187;-86
2022/05/04 10:48:30;;;;;;;3.90;2.88;;;21.50;1.00;;;;;;5113524;28;20236;-86
2022/05/04 10:51:04;;;;;;;4.68;2.60;;;21.40;1.00;;;;;;5113949;28;20269;-90
2022/05/04 10:53:40;;;;;;;6.22;3.03;;;21.40;1.00;;;;;;5114041;28;20240;-88
2022/05/04 10:56:09;;;;;;;3.30;2.90;;;21.40;1.00;;;;;;5113938;28;20213;-87
2022/05/04 10:58:39;;;;;;;6.05;2.83;;;21.70;1.00;;;;;;5113731;28;20603;-88
2022/05/04 11:01:20;;;;;;;3.90;2.67;;;22.20;1.00;;;;;;5113630;28;20350;-88
2022/05/04 11:04:18;;;;;;;6.57;4.93;;;22.60;1.00;;;;;;5113329;28;20666;-88
2022/05/04 11:06:55;;;;;;;3.13;2.40;;;22.50;1.00;;;;;;5068141;28;20234;-88
2022/05/04 11:09:25;;;;;;;4.35;2.83;;;22.20;1.00;;;;;;5113382;28;20228;-86
2022/05/04 11:11:54;;;;;;;3.72;2.38;;;22.20;1.00;;;;;;5113783;28;20195;-86
2022/05/04 11:14:22;;;;;;;2.95;2.60;;;22.30;1.00;;;;;;5113813;28;20230;-86
2022/05/04 11:16:51;;;;;;;6.82;2.80;;;22.60;1.00;;;;;;5112972;28;20282;-86
2022/05/04 11:19:18;;;;;;;3.50;2.45;;;22.80;1.00;;;;;;5113071;28;20650;-87
2022/05/04 11:21:47;;;;;;;3.17;2.60;;;23.00;1.00;;;;;;5113316;28;20195;-87
2022/05/04 11:24:15;;;;;;;3.00;2.70;;;23.40;1.00;;;;;;5113106;28;20250;-85
2022/05/04 11:26:44;;;;;;;3.65;2.50;;;23.70;1.00;;;;;;5113002;28;20215;-86
2022/05/04 11:29:13;;;;;;;3.28;2.33;;;23.80;1.00;;;;;;5113004;28;20651;-86
2022/05/04 11:31:44;;;;;;;3.00;2.53;;;23.70;1.00;;;;;;5113174;28;20238;-87
2022/05/04 11:34:14;;;;;;;3.17;2.30;;;23.60;1.00;;;;;;5113176;28;20199;-85
2022/05/04 11:36:44;;;;;;;3.35;2.03;;;23.60;1.00;;;;;;5113118;28;20183;-87
2022/05/04 11:39:15;;;;;;;5.45;2.33;;;23.60;1.00;;;;;;5112491;28;20190;-87
2022/05/04 11:41:45;;;;;;;2.53;2.03;;;23.60;1.00;;;;;;5112738;28;20206;-87
2022/05/04 11:44:13;;;;;;;3.33;2.05;;;23.50;1.00;;;;;;5112748;28;20747;-88
2022/05/04 11:46:40;;;;;;;2.35;1.92;;;23.60;1.00;;;;;;5112942;28;20195;-88
2022/05/04 11:49:09;;;;;;;2.67;2.10;;;23.50;1.00;;;;;;5113000;28;20187;-87
2022/05/04 11:51:36;;;;;;;4.28;2.00;;;23.60;1.00;;;;;;5112815;28;20577;-87
2022/05/04 11:54:03;;;;;;;1.92;1.73;;;23.80;1.00;;;;;;5112855;28;20255;-87
2022/05/04 11:56:32;;;;;;;2.33;1.90;;;24.00;1.00;;;;;;5112572;28;20233;-85
2022/05/04 11:58:59;;;;;;;2.38;1.90;;;24.10;1.00;;;;;;5112772;28;20195;-86
2022/05/04 12:01:26;;;;;;;2.17;1.77;;;23.90;1.00;;;;;;5112811;28;20287;-86
2022/05/04 12:03:53;;;;;;;3.47;1.92;;;23.80;1.00;;;;;;5112426;28;20255;-87
2022/05/04 12:06:21;;;;;;;3.67;1.90;;;23.70;1.00;;;;;;5112439;28;20236;-85
2022/05/04 12:08:48;;;;;;;9.77;2.55;;;23.70;1.00;;;;;;5112426;28;20205;-85
2022/05/04 12:11:17;;;;;;;4.25;1.88;;;23.80;1.00;;;;;;5112756;28;20191;-87
2022/05/04 12:13:47;;;;;;;2.90;2.05;;;24.10;1.00;;;;;;5112396;28;20741;-87
2022/05/04 12:16:14;;;;;;;2.55;1.60;;;24.40;1.00;;;;;;5112707;28;20195;-87
2022/05/04 12:18:41;;;;;;;5.20;1.80;;;24.40;1.00;;;;;;5112205;28;20219;-86
2022/05/04 12:21:09;;;;;;;1.95;1.73;;;24.40;1.00;;;;;;5112547;28;20226;-86
2022/05/04 12:23:39;;;;;;;2.70;1.80;;;24.30;1.00;;;;;;5112705;28;20222;-86
2022/05/04 12:26:07;;;;;;;3.35;2.38;;;24.00;1.00;;;;;;5113083;28;20245;-86
2022/05/04 12:28:34;;;;;;;3.42;1.80;;;23.80;1.00;;;;;;5112329;28;20186;-86
2022/05/04 12:33:49;;;;;;;3.03;1.90;;;23.50;1.00;;;;;;5112257;28;20635;-83
2022/05/04 12:36:18;;;;;;;2.55;1.90;;;23.40;1.00;;;;;;5111733;28;20298;-85
2022/05/04 12:38:48;;;;;;;4.65;1.88;;;23.50;1.00;;;;;;5111944;28;20222;-85
2022/05/04 12:41:17;;;;;;;2.13;1.90;;;23.40;1.00;;;;;;5112085;28;20221;-84
2022/05/04 12:43:46;;;;;;;2.38;2.00;;;23.50;1.00;;;;;;5111890;28;20217;-86
2022/05/04 12:46:16;;;;;;;3.78;1.60;;;23.60;1.00;;;;;;5111931;28;20252;-83
2022/05/04 12:48:44;;;;;;;7.55;2.08;;;23.60;1.00;;;;;;5112281;28;20259;-83
2022/05/04 12:51:13;;;;;;;3.80;1.90;;;23.70;1.00;;;;;;5111527;28;20250;-83
2022/05/04 12:53:40;;;;;;;2.95;2.00;;;23.70;1.00;;;;;;5111864;28;20202;-83
2022/05/04 12:58:53;;;;;;;2.95;1.70;;;24.10;1.00;;;;;;5114527;28;20179;-83
2022/05/04 13:01:24;;;;;;;3.38;1.92;;;24.30;1.00;;;;;;5115730;28;20367;-82
2022/05/04 13:03:51;;;;;;;2.03;1.83;;;24.50;1.00;;;;;;5115473;28;20667;-84
2022/05/04 13:06:18;;;;;;;2.35;1.60;;;24.50;1.00;;;;;;5101187;28;20202;-85
2022/05/04 13:08:46;;;;;;;2.50;1.70;;;24.50;1.00;;;;;;5095379;28;20192;-84
2022/05/04 13:11:13;;;;;;;1.98;1.73;;;24.50;1.00;;;;;;5094968;28;20195;-84
2022/05/04 13:13:40;;;;;;;4.13;1.98;;;24.40;1.00;;;;;;5102292;28;20241;-84
2022/05/04 13:16:07;;;;;;;3.55;1.50;;;24.30;1.00;;;;;;5115150;28;20263;-84
2022/05/04 13:18:35;;;;;;;20.42;9.15;;;24.10;1.00;;;;;;5114454;28;20590;-82
2022/05/04 13:21:02;;;;;;;8.98;3.80;;;24.00;1.00;;;;;;5115183;28;20191;-84
2022/05/04 13:23:29;;;;;;;3.35;1.90;;;23.90;1.00;;;;;;5115318;28;20191;-85
2022/05/04 13:25:56;;;;;;;2.70;1.80;;;23.90;1.00;;;;;;5113946;28;20597;-83
2022/05/04 13:28:23;;;;;;;2.78;2.00;;;24.00;1.00;;;;;;5114813;28;20230;-83
2022/05/04 13:30:50;;;;;;;3.00;2.13;;;24.10;1.00;;;;;;5114354;28;20605;-83
2022/05/04 13:33:17;;;;;;;3.63;1.88;;;24.10;1.00;;;;;;5115323;28;20191;-83
2022/05/04 13:35:46;;;;;;;2.28;2.00;;;24.00;1.00;;;;;;5115046;28;20618;-84
2022/05/04 13:38:13;;;;;;;16.67;4.45;;;23.80;1.00;;;;;;5115249;28;20190;-82
2022/05/04 13:40:40;;;;;;;2.97;2.17;;;23.70;1.00;;;;;;5114429;28;20191;-82
2022/05/04 13:43:07;;;;;;;8.38;4.13;;;23.60;1.00;;;;;;5114238;28;20199;-86
2022/05/04 13:45:34;;;;;;;4.35;2.20;;;23.60;1.00;;;;;;5113996;28;20218;-85
2022/05/04 13:48:01;;;;;;;2.42;2.22;;;23.50;1.00;;;;;;5113653;28;20275;-85
2022/05/04 13:53:17;;;;;;;4.00;1.95;;;23.40;1.00;;;;;;5114773;28;20260;-85
2022/05/04 13:55:46;;;;;;;3.28;2.40;;;23.40;1.00;;;;;;5114088;28;20584;-83
2022/05/04 13:58:13;;;;;;;4.50;2.88;;;23.30;1.00;;;;;;5114820;28;20191;-83
2022/05/04 14:00:40;;;;;;;3.45;2.13;;;23.20;1.00;;;;;;5113667;28;20299;-82
2022/05/04 14:03:08;;;;;;;2.38;2.10;;;23.10;1.00;;;;;;5114328;28;20198;-83
2022/05/04 14:05:35;;;;;;;4.03;2.45;;;23.00;1.00;;;;;;5113872;28;20301;-84
2022/05/04 14:08:03;;;;;;;2.08;1.88;;;23.00;1.00;;;;;;5114199;28;20191;-83
2022/05/04 14:10:32;;;;;;;2.53;1.90;;;23.10;1.00;;;;;;5114668;28;20289;-85
2022/05/04 14:12:59;;;;;;;3.45;2.30;;;23.00;1.00;;;;;;5113657;28;20194;-84
2022/05/04 14:15:27;;;;;;;3.78;2.85;;;22.90;1.00;;;;;;5114494;28;20237;-83
2022/05/04 14:17:54;;;;;;;8.20;3.28;;;22.90;1.00;;;;;;5113838;28;20625;-83
2022/05/04 14:20:21;;;;;;;3.63;2.05;;;22.90;1.00;;;;;;5114109;28;20233;-82
2022/05/04 14:22:48;;;;;;;4.97;3.67;;;22.80;1.00;;;;;;5114297;28;20195;-83
2022/05/04 14:25:15;;;;;;;3.83;2.55;;;22.60;1.00;;;;;;5114179;28;20264;-83
2022/05/04 14:27:45;;;;;;;2.45;1.90;;;22.50;1.00;;;;;;5113926;28;20643;-84
2022/05/04 14:30:12;;;;;;;3.33;1.90;;;22.50;1.00;;;;;;5114301;28;20221;-83